sensor_id;sensor_type;location;lat;lon;timestamp;temperature;humidity
34989;DHT22;21192;40.182;44.516;2023-04-24T00:00:13;16.10;98.70
34989;DHT22;21192;40.182;44.516;2023-04-24T00:02:40;16.10;98.70
34989;DHT22;21192;40.182;44.516;2023-04-24T00:05:07;16.10;98.70
34989;DHT22;21192;40.182;44.516;2023-04-24T00:07:34;16.10;98.80
34989;DHT22;21192;40.182;44.516;2023-04-24T00:10:00;16.10;99.00
34989;DHT22;21192;40.182;44.516;2023-04-24T00:12:26;16.10;99.00
34989;DHT22;21192;40.182;44.516;2023-04-24T00:14:53;16.20;99.00
34989;DHT22;21192;40.182;44.516;2023-04-24T00:17:19;16.30;99.00
34989;DHT22;21192;40.182;44.516;2023-04-24T00:19:49;16.30;99.10
34989;DHT22;21192;40.182;44.516;2023-04-24T00:22:17;16.30;99.20
34989;DHT22;21192;40.182;44.516;2023-04-24T00:24:43;16.40;99.20
34989;DHT22;21192;40.182;44.516;2023-04-24T00:27:09;16.40;99.00
34989;DHT22;21192;40.182;44.516;2023-04-24T00:29:35;16.40;98.80
34989;DHT22;21192;40.182;44.516;2023-04-24T00:32:00;16.50;98.60
34989;DHT22;21192;40.182;44.516;2023-04-24T00:34:26;16.40;98.50
34989;DHT22;21192;40.182;44.516;2023-04-24T00:36:52;16.50;98.40
34989;DHT22;21192;40.182;44.516;2023-04-24T00:39:21;16.50;98.00
34989;DHT22;21192;40.182;44.516;2023-04-24T00:41:48;16.60;97.80
34989;DHT22;21192;40.182;44.516;2023-04-24T00:44:14;16.60;97.70
34989;DHT22;21192;40.182;44.516;2023-04-24T00:46:41;16.70;97.60
34989;DHT22;21192;40.182;44.516;2023-04-24T00:49:07;16.70;97.60
34989;DHT22;21192;40.182;44.516;2023-04-24T00:51:33;16.80;97.80
34989;DHT22;21192;40.182;44.516;2023-04-24T00:54:00;16.80;97.30
34989;DHT22;21192;40.182;44.516;2023-04-24T00:56:27;16.80;97.20
34989;DHT22;21192;40.182;44.516;2023-04-24T00:58:53;16.80;97.20
34989;DHT22;21192;40.182;44.516;2023-04-24T01:01:20;16.80;97.40
34989;DHT22;21192;40.182;44.516;2023-04-24T01:03:46;16.80;97.60
34989;DHT22;21192;40.182;44.516;2023-04-24T01:06:13;16.60;98.70
34989;DHT22;21192;40.182;44.516;2023-04-24T01:08:40;16.40;99.90
34989;DHT22;21192;40.182;44.516;2023-04-24T01:11:06;16.30;99.90
34989;DHT22;21192;40.182;44.516;2023-04-24T01:13:33;16.20;99.90
34989;DHT22;21192;40.182;44.516;2023-04-24T01:15:59;16.10;99.90
34989;DHT22;21192;40.182;44.516;2023-04-24T01:18:25;16.10;99.90
34989;DHT22;21192;40.182;44.516;2023-04-24T01:20:54;16.00;99.90
34989;DHT22;21192;40.182;44.516;2023-04-24T01:23:22;16.00;99.90
34989;DHT22;21192;40.182;44.516;2023-04-24T01:25:49;16.00;99.90
34989;DHT22;21192;40.182;44.516;2023-04-24T01:28:16;16.00;99.90
34989;DHT22;21192;40.182;44.516;2023-04-24T01:30:42;16.00;99.90
34989;DHT22;21192;40.182;44.516;2023-04-24T01:33:08;16.00;99.90
34989;DHT22;21192;40.182;44.516;2023-04-24T01:35:34;16.00;99.90
34989;DHT22;21192;40.182;44.516;2023-04-24T01:38:02;15.90;99.90
34989;DHT22;21192;40.182;44.516;2023-04-24T01:40:28;15.80;99.90
34989;DHT22;21192;40.182;44.516;2023-04-24T01:42:53;15.70;99.90
34989;DHT22;21192;40.182;44.516;2023-04-24T01:45:19;15.60;99.90
34989;DHT22;21192;40.182;44.516;2023-04-24T01:47:47;15.60;99.90
34989;DHT22;21192;40.182;44.516;2023-04-24T01:50:14;15.50;99.90
34989;DHT22;21192;40.182;44.516;2023-04-24T01:52:40;15.40;99.90
34989;DHT22;21192;40.182;44.516;2023-04-24T01:55:06;15.40;99.90
34989;DHT22;21192;40.182;44.516;2023-04-24T01:57:33;15.40;99.90
34989;DHT22;21192;40.182;44.516;2023-04-24T01:59:59;15.50;99.90
34989;DHT22;21192;40.182;44.516;2023-04-24T02:02:25;15.60;99.90
34989;DHT22;21192;40.182;44.516;2023-04-24T02:04:53;15.60;99.90
34989;DHT22;21192;40.182;44.516;2023-04-24T02:07:19;15.60;99.90
34989;DHT22;21192;40.182;44.516;2023-04-24T02:09:45;15.60;99.90
34989;DHT22;21192;40.182;44.516;2023-04-24T02:12:11;15.60;99.90
34989;DHT22;21192;40.182;44.516;2023-04-24T02:14:37;15.50;99.90
34989;DHT22;21192;40.182;44.516;2023-04-24T02:17:03;15.50;99.90
34989;DHT22;21192;40.182;44.516;2023-04-24T02:19:29;15.60;99.90
34989;DHT22;21192;40.182;44.516;2023-04-24T02:21:55;15.70;99.90
34989;DHT22;21192;40.182;44.516;2023-04-24T02:24:20;15.90;99.90
34989;DHT22;21192;40.182;44.516;2023-04-24T02:26:46;15.90;99.90
34989;DHT22;21192;40.182;44.516;2023-04-24T02:29:12;16.00;99.90
34989;DHT22;21192;40.182;44.516;2023-04-24T02:31:38;16.00;99.90
34989;DHT22;21192;40.182;44.516;2023-04-24T02:34:03;16.00;99.90
34989;DHT22;21192;40.182;44.516;2023-04-24T02:36:29;16.00;99.90
34989;DHT22;21192;40.182;44.516;2023-04-24T02:38:55;15.90;99.90
34989;DHT22;21192;40.182;44.516;2023-04-24T02:41:21;15.80;99.90
34989;DHT22;21192;40.182;44.516;2023-04-24T02:43:47;15.80;99.90
34989;DHT22;21192;40.182;44.516;2023-04-24T02:46:13;15.80;99.90
34989;DHT22;21192;40.182;44.516;2023-04-24T02:48:39;15.80;99.90
34989;DHT22;21192;40.182;44.516;2023-04-24T02:51:05;15.90;99.90
34989;DHT22;21192;40.182;44.516;2023-04-24T02:53:32;15.80;99.90
34989;DHT22;21192;40.182;44.516;2023-04-24T02:55:58;15.80;99.90
34989;DHT22;21192;40.182;44.516;2023-04-24T02:58:24;15.80;99.90
34989;DHT22;21192;40.182;44.516;2023-04-24T03:00:54;15.90;99.90
34989;DHT22;21192;40.182;44.516;2023-04-24T03:03:21;16.00;99.90
34989;DHT22;21192;40.182;44.516;2023-04-24T03:05:47;16.00;99.90
34989;DHT22;21192;40.182;44.516;2023-04-24T03:08:13;16.10;99.90
34989;DHT22;21192;40.182;44.516;2023-04-24T03:10:40;16.20;99.90
34989;DHT22;21192;40.182;44.516;2023-04-24T03:13:05;16.30;99.90
34989;DHT22;21192;40.182;44.516;2023-04-24T03:15:31;16.20;99.90
34989;DHT22;21192;40.182;44.516;2023-04-24T03:17:57;16.30;99.90
34989;DHT22;21192;40.182;44.516;2023-04-24T03:20:23;16.40;99.90
34989;DHT22;21192;40.182;44.516;2023-04-24T03:22:49;16.50;99.90
34989;DHT22;21192;40.182;44.516;2023-04-24T03:25:15;16.60;99.90
34989;DHT22;21192;40.182;44.516;2023-04-24T03:27:41;16.60;99.90
34989;DHT22;21192;40.182;44.516;2023-04-24T03:30:07;16.70;99.90
34989;DHT22;21192;40.182;44.516;2023-04-24T03:32:33;16.60;99.90
34989;DHT22;21192;40.182;44.516;2023-04-24T03:34:59;16.60;99.90
34989;DHT22;21192;40.182;44.516;2023-04-24T03:37:25;16.60;99.90
34989;DHT22;21192;40.182;44.516;2023-04-24T03:39:52;16.50;99.90
34989;DHT22;21192;40.182;44.516;2023-04-24T03:42:18;16.40;99.90
34989;DHT22;21192;40.182;44.516;2023-04-24T03:44:44;16.30;99.90
34989;DHT22;21192;40.182;44.516;2023-04-24T03:47:09;16.30;99.90
34989;DHT22;21192;40.182;44.516;2023-04-24T03:49:35;16.20;99.90
34989;DHT22;21192;40.182;44.516;2023-04-24T03:52:01;16.10;99.90
34989;DHT22;21192;40.182;44.516;2023-04-24T03:54:27;15.80;99.90
34989;DHT22;21192;40.182;44.516;2023-04-24T03:56:53;15.70;99.90
34989;DHT22;21192;40.182;44.516;2023-04-24T03:59:19;15.40;99.90
34989;DHT22;21192;40.182;44.516;2023-04-24T04:01:45;15.40;99.90
34989;DHT22;21192;40.182;44.516;2023-04-24T04:04:11;15.30;99.90
34989;DHT22;21192;40.182;44.516;2023-04-24T04:06:37;15.40;99.90
34989;DHT22;21192;40.182;44.516;2023-04-24T04:09:03;15.60;99.90
34989;DHT22;21192;40.182;44.516;2023-04-24T04:11:29;15.70;99.90
34989;DHT22;21192;40.182;44.516;2023-04-24T04:13:56;15.80;99.90
34989;DHT22;21192;40.182;44.516;2023-04-24T04:16:22;15.90;99.90
34989;DHT22;21192;40.182;44.516;2023-04-24T04:18:48;15.90;99.90
34989;DHT22;21192;40.182;44.516;2023-04-24T04:21:14;15.90;99.90
34989;DHT22;21192;40.182;44.516;2023-04-24T04:23:40;15.90;99.90
34989;DHT22;21192;40.182;44.516;2023-04-24T04:26:07;15.90;99.90
34989;DHT22;21192;40.182;44.516;2023-04-24T04:28:33;15.90;99.90
34989;DHT22;21192;40.182;44.516;2023-04-24T04:31:00;16.00;99.90
34989;DHT22;21192;40.182;44.516;2023-04-24T04:33:26;16.00;99.90
34989;DHT22;21192;40.182;44.516;2023-04-24T04:35:52;16.00;99.90
34989;DHT22;21192;40.182;44.516;2023-04-24T04:38:19;16.10;99.90
34989;DHT22;21192;40.182;44.516;2023-04-24T04:40:46;16.20;99.90
34989;DHT22;21192;40.182;44.516;2023-04-24T04:43:12;16.40;99.90
34989;DHT22;21192;40.182;44.516;2023-04-24T04:45:41;16.60;99.90
34989;DHT22;21192;40.182;44.516;2023-04-24T04:48:09;16.90;99.90
34989;DHT22;21192;40.182;44.516;2023-04-24T04:50:35;17.10;99.90
34989;DHT22;21192;40.182;44.516;2023-04-24T04:53:01;17.30;99.90
34989;DHT22;21192;40.182;44.516;2023-04-24T04:55:27;17.60;99.90
34989;DHT22;21192;40.182;44.516;2023-04-24T04:57:53;17.90;99.90
34989;DHT22;21192;40.182;44.516;2023-04-24T05:00:19;18.10;99.90
34989;DHT22;21192;40.182;44.516;2023-04-24T05:02:44;18.50;99.90
34989;DHT22;21192;40.182;44.516;2023-04-24T05:05:10;19.00;99.90
34989;DHT22;21192;40.182;44.516;2023-04-24T05:07:36;19.80;99.90
34989;DHT22;21192;40.182;44.516;2023-04-24T05:10:03;20.50;99.90
34989;DHT22;21192;40.182;44.516;2023-04-24T05:12:29;21.30;99.60
34989;DHT22;21192;40.182;44.516;2023-04-24T05:14:54;21.70;98.00
34989;DHT22;21192;40.182;44.516;2023-04-24T05:17:20;21.80;96.90
34989;DHT22;21192;40.182;44.516;2023-04-24T05:19:46;21.90;96.20
34989;DHT22;21192;40.182;44.516;2023-04-24T05:22:13;22.00;95.50
34989;DHT22;21192;40.182;44.516;2023-04-24T05:24:39;22.20;94.70
34989;DHT22;21192;40.182;44.516;2023-04-24T05:27:05;22.40;94.00
34989;DHT22;21192;40.182;44.516;2023-04-24T05:29:31;22.50;93.00
34989;DHT22;21192;40.182;44.516;2023-04-24T05:31:58;22.30;93.00
34989;DHT22;21192;40.182;44.516;2023-04-24T05:34:25;22.30;92.80
34989;DHT22;21192;40.182;44.516;2023-04-24T05:36:51;22.10;93.40
34989;DHT22;21192;40.182;44.516;2023-04-24T05:39:17;21.90;94.60
34989;DHT22;21192;40.182;44.516;2023-04-24T05:41:43;21.70;95.00
34989;DHT22;21192;40.182;44.516;2023-04-24T05:44:09;21.60;95.10
34989;DHT22;21192;40.182;44.516;2023-04-24T05:46:35;21.40;94.90
34989;DHT22;21192;40.182;44.516;2023-04-24T05:49:01;21.30;94.70
34989;DHT22;21192;40.182;44.516;2023-04-24T05:51:28;21.10;94.40
34989;DHT22;21192;40.182;44.516;2023-04-24T05:53:54;21.10;94.40
34989;DHT22;21192;40.182;44.516;2023-04-24T05:56:20;20.90;94.70
34989;DHT22;21192;40.182;44.516;2023-04-24T05:58:46;20.90;95.40
34989;DHT22;21192;40.182;44.516;2023-04-24T06:01:13;20.60;96.70
34989;DHT22;21192;40.182;44.516;2023-04-24T06:03:41;20.50;97.90
34989;DHT22;21192;40.182;44.516;2023-04-24T06:06:07;20.40;99.20
34989;DHT22;21192;40.182;44.516;2023-04-24T06:08:34;20.10;99.90
34989;DHT22;21192;40.182;44.516;2023-04-24T06:11:00;19.90;99.90
34989;DHT22;21192;40.182;44.516;2023-04-24T06:13:26;19.70;99.90
34989;DHT22;21192;40.182;44.516;2023-04-24T06:15:52;19.50;99.90
34989;DHT22;21192;40.182;44.516;2023-04-24T06:18:18;19.30;99.90
34989;DHT22;21192;40.182;44.516;2023-04-24T06:20:46;19.20;99.90
34989;DHT22;21192;40.182;44.516;2023-04-24T06:23:12;19.10;99.90
34989;DHT22;21192;40.182;44.516;2023-04-24T06:25:38;19.00;99.90
34989;DHT22;21192;40.182;44.516;2023-04-24T06:28:04;18.90;99.90
34989;DHT22;21192;40.182;44.516;2023-04-24T06:30:31;18.80;99.90
34989;DHT22;21192;40.182;44.516;2023-04-24T06:32:56;18.80;99.90
34989;DHT22;21192;40.182;44.516;2023-04-24T06:35:23;18.90;99.90
34989;DHT22;21192;40.182;44.516;2023-04-24T06:37:48;19.00;99.90
34989;DHT22;21192;40.182;44.516;2023-04-24T06:40:14;19.30;99.90
34989;DHT22;21192;40.182;44.516;2023-04-24T06:42:40;19.50;99.90
34989;DHT22;21192;40.182;44.516;2023-04-24T06:45:06;19.80;99.90
34989;DHT22;21192;40.182;44.516;2023-04-24T06:47:32;20.00;99.90
34989;DHT22;21192;40.182;44.516;2023-04-24T06:49:58;20.20;99.90
34989;DHT22;21192;40.182;44.516;2023-04-24T06:52:24;20.40;99.90
34989;DHT22;21192;40.182;44.516;2023-04-24T06:54:50;20.60;99.90
34989;DHT22;21192;40.182;44.516;2023-04-24T06:57:17;20.90;99.90
34989;DHT22;21192;40.182;44.516;2023-04-24T06:59:42;21.20;99.90
34989;DHT22;21192;40.182;44.516;2023-04-24T07:02:08;21.40;99.90
34989;DHT22;21192;40.182;44.516;2023-04-24T07:04:34;21.60;99.90
34989;DHT22;21192;40.182;44.516;2023-04-24T07:07:00;21.70;99.90
34989;DHT22;21192;40.182;44.516;2023-04-24T07:09:26;21.70;99.90
34989;DHT22;21192;40.182;44.516;2023-04-24T07:11:53;21.70;99.90
34989;DHT22;21192;40.182;44.516;2023-04-24T07:14:19;21.90;99.90
34989;DHT22;21192;40.182;44.516;2023-04-24T07:16:46;22.10;99.90
34989;DHT22;21192;40.182;44.516;2023-04-24T07:19:13;22.10;99.90
34989;DHT22;21192;40.182;44.516;2023-04-24T07:21:40;22.10;99.80
34989;DHT22;21192;40.182;44.516;2023-04-24T07:24:06;22.20;99.30
34989;DHT22;21192;40.182;44.516;2023-04-24T07:26:37;22.30;98.60
34989;DHT22;21192;40.182;44.516;2023-04-24T07:29:04;22.30;96.70
34989;DHT22;21192;40.182;44.516;2023-04-24T07:31:30;22.20;95.50
34989;DHT22;21192;40.182;44.516;2023-04-24T07:33:57;21.80;95.80
34989;DHT22;21192;40.182;44.516;2023-04-24T07:36:24;21.80;96.40
34989;DHT22;21192;40.182;44.516;2023-04-24T07:38:51;22.10;96.60
34989;DHT22;21192;40.182;44.516;2023-04-24T07:41:18;22.30;96.60
34989;DHT22;21192;40.182;44.516;2023-04-24T07:43:44;22.50;96.40
34989;DHT22;21192;40.182;44.516;2023-04-24T07:46:11;22.60;96.30
34989;DHT22;21192;40.182;44.516;2023-04-24T07:48:37;22.60;96.20
34989;DHT22;21192;40.182;44.516;2023-04-24T07:51:03;22.60;96.10
34989;DHT22;21192;40.182;44.516;2023-04-24T07:53:28;22.60;95.80
34989;DHT22;21192;40.182;44.516;2023-04-24T07:55:56;22.50;95.60
34989;DHT22;21192;40.182;44.516;2023-04-24T07:58:22;22.40;95.40
34989;DHT22;21192;40.182;44.516;2023-04-24T08:00:48;22.30;95.40
34989;DHT22;21192;40.182;44.516;2023-04-24T08:03:14;22.30;95.30
34989;DHT22;21192;40.182;44.516;2023-04-24T08:05:43;22.30;95.00
34989;DHT22;21192;40.182;44.516;2023-04-24T08:08:09;22.20;94.70
34989;DHT22;21192;40.182;44.516;2023-04-24T08:10:35;22.10;94.40
34989;DHT22;21192;40.182;44.516;2023-04-24T08:13:01;22.10;93.80
34989;DHT22;21192;40.182;44.516;2023-04-24T08:15:27;22.10;92.80
34989;DHT22;21192;40.182;44.516;2023-04-24T08:17:53;22.10;92.20
34989;DHT22;21192;40.182;44.516;2023-04-24T08:20:19;22.20;91.50
34989;DHT22;21192;40.182;44.516;2023-04-24T08:22:45;22.20;91.10
34989;DHT22;21192;40.182;44.516;2023-04-24T08:25:13;22.20;91.00
34989;DHT22;21192;40.182;44.516;2023-04-24T08:27:39;22.10;91.00
34989;DHT22;21192;40.182;44.516;2023-04-24T08:30:05;22.10;90.60
34989;DHT22;21192;40.182;44.516;2023-04-24T08:32:31;22.10;90.30
34989;DHT22;21192;40.182;44.516;2023-04-24T08:34:58;22.20;90.20
34989;DHT22;21192;40.182;44.516;2023-04-24T08:37:26;22.20;90.40
34989;DHT22;21192;40.182;44.516;2023-04-24T08:39:52;22.20;90.60
34989;DHT22;21192;40.182;44.516;2023-04-24T08:42:18;22.20;90.60
34989;DHT22;21192;40.182;44.516;2023-04-24T08:44:45;22.20;90.40
34989;DHT22;21192;40.182;44.516;2023-04-24T08:47:12;22.30;90.00
34989;DHT22;21192;40.182;44.516;2023-04-24T08:49:38;22.30;89.60
34989;DHT22;21192;40.182;44.516;2023-04-24T08:52:08;22.40;89.20
34989;DHT22;21192;40.182;44.516;2023-04-24T08:54:35;22.50;87.80
34989;DHT22;21192;40.182;44.516;2023-04-24T08:57:01;22.60;86.60
34989;DHT22;21192;40.182;44.516;2023-04-24T08:59:29;22.50;86.30
34989;DHT22;21192;40.182;44.516;2023-04-24T09:01:56;22.50;86.00
34989;DHT22;21192;40.182;44.516;2023-04-24T09:04:23;22.40;86.70
34989;DHT22;21192;40.182;44.516;2023-04-24T09:06:55;22.30;85.90
34989;DHT22;21192;40.182;44.516;2023-04-24T09:09:21;22.20;86.70
34989;DHT22;21192;40.182;44.516;2023-04-24T09:11:50;22.20;86.90
34989;DHT22;21192;40.182;44.516;2023-04-24T09:14:16;22.00;87.30
34989;DHT22;21192;40.182;44.516;2023-04-24T09:16:43;22.00;87.90
34989;DHT22;21192;40.182;44.516;2023-04-24T09:19:08;21.90;88.60
34989;DHT22;21192;40.182;44.516;2023-04-24T09:21:35;21.90;89.20
34989;DHT22;21192;40.182;44.516;2023-04-24T09:24:07;21.80;89.80
34989;DHT22;21192;40.182;44.516;2023-04-24T09:26:36;21.80;90.00
34989;DHT22;21192;40.182;44.516;2023-04-24T09:29:03;21.80;90.20
34989;DHT22;21192;40.182;44.516;2023-04-24T09:31:30;21.80;90.60
34989;DHT22;21192;40.182;44.516;2023-04-24T09:34:05;21.90;90.80
34989;DHT22;21192;40.182;44.516;2023-04-24T09:36:33;21.90;90.80
34989;DHT22;21192;40.182;44.516;2023-04-24T09:39:00;21.80;90.70
34989;DHT22;21192;40.182;44.516;2023-04-24T09:41:27;21.60;91.00
34989;DHT22;21192;40.182;44.516;2023-04-24T09:43:55;21.50;91.10
34989;DHT22;21192;40.182;44.516;2023-04-24T09:46:21;21.60;90.90
34989;DHT22;21192;40.182;44.516;2023-04-24T09:48:48;21.70;90.90
34989;DHT22;21192;40.182;44.516;2023-04-24T09:51:13;21.80;90.60
34989;DHT22;21192;40.182;44.516;2023-04-24T09:53:45;21.80;90.50
34989;DHT22;21192;40.182;44.516;2023-04-24T09:56:11;21.80;90.50
34989;DHT22;21192;40.182;44.516;2023-04-24T09:58:38;21.80;90.50
34989;DHT22;21192;40.182;44.516;2023-04-24T10:01:04;21.70;91.00
34989;DHT22;21192;40.182;44.516;2023-04-24T10:03:31;21.60;90.60
34989;DHT22;21192;40.182;44.516;2023-04-24T10:06:02;21.70;90.60
34989;DHT22;21192;40.182;44.516;2023-04-24T10:08:37;21.60;90.60
34989;DHT22;21192;40.182;44.516;2023-04-24T10:11:03;21.60;90.50
34989;DHT22;21192;40.182;44.516;2023-04-24T10:13:29;21.60;90.60
34989;DHT22;21192;40.182;44.516;2023-04-24T10:15:56;21.50;90.60
34989;DHT22;21192;40.182;44.516;2023-04-24T10:18:25;21.60;90.40
34989;DHT22;21192;40.182;44.516;2023-04-24T10:20:52;21.70;90.10
34989;DHT22;21192;40.182;44.516;2023-04-24T10:23:20;21.70;89.90
34989;DHT22;21192;40.182;44.516;2023-04-24T10:25:46;21.70;89.70
34989;DHT22;21192;40.182;44.516;2023-04-24T10:28:12;21.60;89.80
34989;DHT22;21192;40.182;44.516;2023-04-24T10:30:39;21.70;89.40
34989;DHT22;21192;40.182;44.516;2023-04-24T10:33:08;21.80;89.00
34989;DHT22;21192;40.182;44.516;2023-04-24T10:35:38;21.90;88.50
34989;DHT22;21192;40.182;44.516;2023-04-24T10:38:15;22.00;87.70
34989;DHT22;21192;40.182;44.516;2023-04-24T10:40:42;22.00;87.30
34989;DHT22;21192;40.182;44.516;2023-04-24T10:43:09;22.00;87.20
34989;DHT22;21192;40.182;44.516;2023-04-24T10:45:37;21.80;87.20
34989;DHT22;21192;40.182;44.516;2023-04-24T10:48:05;21.80;87.50
34989;DHT22;21192;40.182;44.516;2023-04-24T10:50:46;21.80;87.40
34989;DHT22;21192;40.182;44.516;2023-04-24T10:53:18;21.90;87.10
34989;DHT22;21192;40.182;44.516;2023-04-24T10:55:45;22.00;86.90
34989;DHT22;21192;40.182;44.516;2023-04-24T10:58:11;21.90;87.10
34989;DHT22;21192;40.182;44.516;2023-04-24T11:00:39;21.70;87.20
34989;DHT22;21192;40.182;44.516;2023-04-24T11:03:12;21.70;87.50
34989;DHT22;21192;40.182;44.516;2023-04-24T11:06:04;21.60;87.50
34989;DHT22;21192;40.182;44.516;2023-04-24T11:08:31;21.60;87.80
34989;DHT22;21192;40.182;44.516;2023-04-24T11:13:25;21.40;88.50
34989;DHT22;21192;40.182;44.516;2023-04-24T11:16:14;21.30;88.70
34989;DHT22;21192;40.182;44.516;2023-04-24T11:18:42;21.10;89.40
34989;DHT22;21192;40.182;44.516;2023-04-24T11:21:12;21.00;89.90
34989;DHT22;21192;40.182;44.516;2023-04-24T11:23:39;21.00;90.10
34989;DHT22;21192;40.182;44.516;2023-04-24T11:26:22;20.90;90.40
34989;DHT22;21192;40.182;44.516;2023-04-24T11:29:06;20.80;90.70
34989;DHT22;21192;40.182;44.516;2023-04-24T11:31:40;20.60;90.80
34989;DHT22;21192;40.182;44.516;2023-04-24T11:34:09;20.50;90.90
34989;DHT22;21192;40.182;44.516;2023-04-24T11:36:36;20.40;91.10
34989;DHT22;21192;40.182;44.516;2023-04-24T11:39:02;20.20;91.50
34989;DHT22;21192;40.182;44.516;2023-04-24T11:41:28;20.20;91.70
34989;DHT22;21192;40.182;44.516;2023-04-24T11:43:55;20.20;91.80
34989;DHT22;21192;40.182;44.516;2023-04-24T11:46:22;20.00;92.10
34989;DHT22;21192;40.182;44.516;2023-04-24T11:48:48;19.80;92.60
34989;DHT22;21192;40.182;44.516;2023-04-24T11:51:14;19.80;93.30
34989;DHT22;21192;40.182;44.516;2023-04-24T11:53:40;19.70;94.30
34989;DHT22;21192;40.182;44.516;2023-04-24T11:56:08;19.50;95.10
34989;DHT22;21192;40.182;44.516;2023-04-24T11:58:38;19.40;95.90
34989;DHT22;21192;40.182;44.516;2023-04-24T12:01:04;19.20;97.40
34989;DHT22;21192;40.182;44.516;2023-04-24T12:03:31;18.80;99.50
34989;DHT22;21192;40.182;44.516;2023-04-24T12:06:07;18.50;99.90
34989;DHT22;21192;40.182;44.516;2023-04-24T12:08:34;18.20;99.90
34989;DHT22;21192;40.182;44.516;2023-04-24T12:11:01;17.90;99.90
34989;DHT22;21192;40.182;44.516;2023-04-24T12:13:27;17.70;99.90
34989;DHT22;21192;40.182;44.516;2023-04-24T12:15:53;17.50;99.90
34989;DHT22;21192;40.182;44.516;2023-04-24T12:18:22;17.20;99.90
34989;DHT22;21192;40.182;44.516;2023-04-24T12:20:48;17.10;99.90
34989;DHT22;21192;40.182;44.516;2023-04-24T12:23:15;16.90;99.90
34989;DHT22;21192;40.182;44.516;2023-04-24T12:25:41;17.00;99.90
34989;DHT22;21192;40.182;44.516;2023-04-24T12:28:12;17.10;99.90
34989;DHT22;21192;40.182;44.516;2023-04-24T12:30:48;17.10;99.90
34989;DHT22;21192;40.182;44.516;2023-04-24T12:33:21;17.20;99.90
34989;DHT22;21192;40.182;44.516;2023-04-24T12:35:48;17.20;99.90
34989;DHT22;21192;40.182;44.516;2023-04-24T12:38:22;17.10;99.90
34989;DHT22;21192;40.182;44.516;2023-04-24T12:41:00;17.10;99.90
34989;DHT22;21192;40.182;44.516;2023-04-24T12:43:26;17.20;99.90
34989;DHT22;21192;40.182;44.516;2023-04-24T12:45:52;17.20;99.90
34989;DHT22;21192;40.182;44.516;2023-04-24T12:48:18;17.20;99.90
34989;DHT22;21192;40.182;44.516;2023-04-24T12:50:47;17.00;99.90
34989;DHT22;21192;40.182;44.516;2023-04-24T12:53:13;16.80;99.90
34989;DHT22;21192;40.182;44.516;2023-04-24T12:55:40;16.80;99.90
34989;DHT22;21192;40.182;44.516;2023-04-24T12:58:06;16.80;99.90
34989;DHT22;21192;40.182;44.516;2023-04-24T13:00:32;16.80;99.90
34989;DHT22;21192;40.182;44.516;2023-04-24T13:02:58;16.90;99.90
34989;DHT22;21192;40.182;44.516;2023-04-24T13:05:24;16.90;99.90
34989;DHT22;21192;40.182;44.516;2023-04-24T13:07:50;16.80;99.90
34989;DHT22;21192;40.182;44.516;2023-04-24T13:10:16;16.70;99.90
34989;DHT22;21192;40.182;44.516;2023-04-24T13:12:42;16.60;99.90
34989;DHT22;21192;40.182;44.516;2023-04-24T13:15:11;16.60;99.90
34989;DHT22;21192;40.182;44.516;2023-04-24T13:17:37;16.60;99.90
34989;DHT22;21192;40.182;44.516;2023-04-24T13:20:03;16.70;99.90
34989;DHT22;21192;40.182;44.516;2023-04-24T13:22:29;16.80;99.90
34989;DHT22;21192;40.182;44.516;2023-04-24T13:24:55;16.90;99.90
34989;DHT22;21192;40.182;44.516;2023-04-24T13:27:21;17.00;99.90
34989;DHT22;21192;40.182;44.516;2023-04-24T13:29:47;17.00;99.90
34989;DHT22;21192;40.182;44.516;2023-04-24T13:32:13;16.90;99.90
34989;DHT22;21192;40.182;44.516;2023-04-24T13:34:39;16.90;99.90
34989;DHT22;21192;40.182;44.516;2023-04-24T13:37:05;17.00;99.90
34989;DHT22;21192;40.182;44.516;2023-04-24T13:39:32;17.10;99.90
34989;DHT22;21192;40.182;44.516;2023-04-24T13:41:58;17.10;99.90
34989;DHT22;21192;40.182;44.516;2023-04-24T13:44:24;17.10;99.90
34989;DHT22;21192;40.182;44.516;2023-04-24T13:46:53;17.20;99.90
34989;DHT22;21192;40.182;44.516;2023-04-24T13:49:20;17.20;99.90
34989;DHT22;21192;40.182;44.516;2023-04-24T13:51:46;17.20;99.90
34989;DHT22;21192;40.182;44.516;2023-04-24T13:54:12;17.30;99.90
34989;DHT22;21192;40.182;44.516;2023-04-24T13:56:39;17.30;99.90
34989;DHT22;21192;40.182;44.516;2023-04-24T13:59:05;17.30;99.90
34989;DHT22;21192;40.182;44.516;2023-04-24T14:01:31;17.30;99.90
34989;DHT22;21192;40.182;44.516;2023-04-24T14:03:57;17.30;99.90
34989;DHT22;21192;40.182;44.516;2023-04-24T14:06:23;17.20;99.90
34989;DHT22;21192;40.182;44.516;2023-04-24T14:08:49;17.20;99.90
34989;DHT22;21192;40.182;44.516;2023-04-24T14:11:16;17.10;99.90
34989;DHT22;21192;40.182;44.516;2023-04-24T14:13:42;17.10;99.90
34989;DHT22;21192;40.182;44.516;2023-04-24T14:16:10;17.20;99.90
34989;DHT22;21192;40.182;44.516;2023-04-24T14:18:36;17.10;99.90
34989;DHT22;21192;40.182;44.516;2023-04-24T14:21:03;17.10;99.90
34989;DHT22;21192;40.182;44.516;2023-04-24T14:23:29;17.00;99.90
34989;DHT22;21192;40.182;44.516;2023-04-24T14:25:55;16.90;99.90
34989;DHT22;21192;40.182;44.516;2023-04-24T14:28:21;16.90;99.90
34989;DHT22;21192;40.182;44.516;2023-04-24T14:30:47;17.00;99.90
34989;DHT22;21192;40.182;44.516;2023-04-24T14:33:14;17.10;99.90
34989;DHT22;21192;40.182;44.516;2023-04-24T14:35:40;16.90;99.90
34989;DHT22;21192;40.182;44.516;2023-04-24T14:38:08;16.90;99.90
34989;DHT22;21192;40.182;44.516;2023-04-24T14:40:35;16.80;99.90
34989;DHT22;21192;40.182;44.516;2023-04-24T14:43:01;16.80;99.90
34989;DHT22;21192;40.182;44.516;2023-04-24T14:45:27;16.80;99.90
34989;DHT22;21192;40.182;44.516;2023-04-24T14:47:53;16.80;99.90
34989;DHT22;21192;40.182;44.516;2023-04-24T14:50:19;16.80;99.90
34989;DHT22;21192;40.182;44.516;2023-04-24T14:52:45;16.70;99.90
34989;DHT22;21192;40.182;44.516;2023-04-24T14:55:12;16.60;99.90
34989;DHT22;21192;40.182;44.516;2023-04-24T14:57:38;16.50;99.90
34989;DHT22;21192;40.182;44.516;2023-04-24T15:00:07;16.40;99.90
34989;DHT22;21192;40.182;44.516;2023-04-24T15:02:35;16.30;99.90
34989;DHT22;21192;40.182;44.516;2023-04-24T15:05:06;16.20;99.90
34989;DHT22;21192;40.182;44.516;2023-04-24T15:07:32;15.90;99.90
34989;DHT22;21192;40.182;44.516;2023-04-24T15:09:58;15.80;99.90
34989;DHT22;21192;40.182;44.516;2023-04-24T15:12:24;15.80;99.90
34989;DHT22;21192;40.182;44.516;2023-04-24T15:14:50;15.70;99.90